createdAt,value
2022-09-10T00:01:59.528Z,99.90
2022-09-10T00:04:27.949Z,99.90
2022-09-10T00:06:55.681Z,99.90
2022-09-10T00:09:23.021Z,99.90
2022-09-10T00:11:49.867Z,99.90
2022-09-10T00:14:20.931Z,99.90
2022-09-10T00:16:48.889Z,99.90
2022-09-10T00:19:16.379Z,99.90
2022-09-10T00:21:44.566Z,99.90
2022-09-10T00:24:12.143Z,99.90
2022-09-10T00:26:39.776Z,99.90
2022-09-10T00:29:12.388Z,99.90
2022-09-10T00:31:39.770Z,99.90
2022-09-10T00:34:07.557Z,99.90
2022-09-10T00:36:39.640Z,99.90
2022-09-10T00:39:17.831Z,99.90
2022-09-10T00:41:47.252Z,99.90
2022-09-10T00:44:42.599Z,99.90
2022-09-10T00:47:23.870Z,99.90
2022-09-10T00:50:05.568Z,99.90
2022-09-10T00:52:37.567Z,99.90
2022-09-10T00:55:06.989Z,99.90
2022-09-10T00:57:33.878Z,99.90
2022-09-10T01:00:05.906Z,99.90
2022-09-10T01:02:32.898Z,99.90
2022-09-10T01:05:02.252Z,99.90
2022-09-10T01:07:30.255Z,99.90
2022-09-10T01:09:59.973Z,99.90
2022-09-10T01:12:56.063Z,99.90
2022-09-10T01:15:47.664Z,99.90
2022-09-10T01:18:39.718Z,99.90
2022-09-10T01:21:24.836Z,99.90
2022-09-10T01:23:54.653Z,99.90
2022-09-10T01:26:33.466Z,99.90
2022-09-10T01:29:04.172Z,99.90
2022-09-10T01:31:53.285Z,99.90
2022-09-10T01:34:24.108Z,99.90
2022-09-10T01:36:56.339Z,99.90
2022-09-10T01:39:25.025Z,99.90
2022-09-10T01:41:54.444Z,99.90
2022-09-10T01:44:47.370Z,99.90
2022-09-10T01:47:38.367Z,99.90
2022-09-10T01:50:05.620Z,99.90
2022-09-10T01:52:58.678Z,99.90
2022-09-10T01:55:34.456Z,99.90
2022-09-10T01:58:19.748Z,99.90
2022-09-10T02:01:07.784Z,99.90
2022-09-10T02:03:37.128Z,99.90
2022-09-10T02:06:07.654Z,99.90
2022-09-10T02:08:37.826Z,99.90
2022-09-10T02:11:06.897Z,99.90
2022-09-10T02:13:34.685Z,99.90
2022-09-10T02:16:03.409Z,99.90
2022-09-10T02:18:32.941Z,99.90
2022-09-10T02:21:02.798Z,99.90
2022-09-10T02:23:42.557Z,99.90
2022-09-10T02:26:09.505Z,99.90
2022-09-10T02:28:36.923Z,99.90
2022-09-10T02:31:03.720Z,99.90
2022-09-10T02:33:31.065Z,99.90
2022-09-10T02:35:59.145Z,99.90
2022-09-10T02:38:26.087Z,99.90
2022-09-10T02:40:52.896Z,99.90
2022-09-10T02:43:20.102Z,99.90
2022-09-10T02:45:46.995Z,99.90
2022-09-10T02:48:14.083Z,99.90
2022-09-10T02:50:41.087Z,99.90
2022-09-10T02:53:07.940Z,99.90
2022-09-10T02:55:34.756Z,99.90
2022-09-10T02:58:01.668Z,99.90
2022-09-10T03:00:28.557Z,99.90
2022-09-10T03:03:00.954Z,99.90
2022-09-10T03:05:29.842Z,99.90
2022-09-10T03:07:57.230Z,99.90
2022-09-10T03:10:24.477Z,99.90
2022-09-10T03:12:53.293Z,99.90
2022-09-10T03:15:20.697Z,99.90
2022-09-10T03:17:47.616Z,99.90
2022-09-10T03:20:14.377Z,99.90
2022-09-10T03:22:41.326Z,99.90
2022-09-10T03:25:08.227Z,99.90
2022-09-10T03:27:35.259Z,99.90
2022-09-10T03:30:03.117Z,99.90
2022-09-10T03:32:32.435Z,99.90
2022-09-10T03:35:00.135Z,99.90
2022-09-10T03:37:26.953Z,99.90
2022-09-10T03:39:53.825Z,99.90
2022-09-10T03:42:21.038Z,99.90
2022-09-10T03:44:47.860Z,99.90
2022-09-10T03:47:14.710Z,99.90
2022-09-10T03:49:41.471Z,99.90
2022-09-10T03:52:12.633Z,99.90
2022-09-10T03:54:39.997Z,99.90
2022-09-10T03:57:06.871Z,99.90
2022-09-10T03:59:33.732Z,99.90
2022-09-10T04:02:00.739Z,99.90
2022-09-10T04:04:27.591Z,99.90
2022-09-10T04:06:54.724Z,99.90
2022-09-10T04:09:21.712Z,99.90
2022-09-10T04:11:48.644Z,99.90
2022-09-10T04:14:15.677Z,99.90
2022-09-10T04:16:42.592Z,99.90
2022-09-10T04:19:09.504Z,99.90
2022-09-10T04:21:36.587Z,99.90
2022-09-10T04:24:03.433Z,99.90
2022-09-10T04:26:30.282Z,99.90
2022-09-10T04:28:57.027Z,99.90
2022-09-10T04:31:23.851Z,99.90
2022-09-10T04:33:50.917Z,99.90
2022-09-10T04:36:17.752Z,99.90
2022-09-10T04:38:44.683Z,99.90
2022-09-10T04:41:12.284Z,99.90
2022-09-10T04:43:40.295Z,99.90
2022-09-10T04:46:07.400Z,99.90
2022-09-10T04:48:35.249Z,99.90
2022-09-10T04:51:18.163Z,99.90
2022-09-10T04:53:45.851Z,99.90
2022-09-10T04:56:12.855Z,99.90
2022-09-10T04:58:41.106Z,99.90
2022-09-10T05:01:08.536Z,99.90
2022-09-10T05:03:36.160Z,99.90
2022-09-10T05:06:03.137Z,99.90
2022-09-10T05:08:30.171Z,99.90
2022-09-10T05:10:57.463Z,99.90
2022-09-10T05:13:24.281Z,99.90
2022-09-10T05:15:51.121Z,99.90
2022-09-10T05:18:17.923Z,99.90
2022-09-10T05:20:45.110Z,99.90
2022-09-10T05:23:12.131Z,99.90
2022-09-10T05:25:39.157Z,99.90
2022-09-10T05:28:06.073Z,99.90
2022-09-10T05:30:33.173Z,99.90
2022-09-10T05:33:01.031Z,99.90
2022-09-10T05:35:29.040Z,99.90
2022-09-10T05:38:00.983Z,99.90
2022-09-10T05:40:28.915Z,99.90
2022-09-10T05:42:55.949Z,99.90
2022-09-10T05:45:23.451Z,99.90
2022-09-10T05:47:51.447Z,99.90
2022-09-10T05:50:18.611Z,99.90
2022-09-10T05:52:46.818Z,99.90
2022-09-10T05:55:13.714Z,99.90
2022-09-10T05:57:40.691Z,99.90
2022-09-10T06:00:09.275Z,99.90
2022-09-10T06:02:37.025Z,99.90
2022-09-10T06:05:04.161Z,99.90
2022-09-10T06:07:31.443Z,99.90
2022-09-10T06:09:58.396Z,99.90
2022-09-10T06:12:25.282Z,99.90
2022-09-10T06:14:52.869Z,99.90
2022-09-10T06:17:19.955Z,99.90
2022-09-10T06:19:47.005Z,99.90
2022-09-10T06:22:14.528Z,99.90
2022-09-10T06:24:42.014Z,99.90
2022-09-10T06:27:09.706Z,99.90
2022-09-10T06:29:36.834Z,99.90
2022-09-10T06:32:04.433Z,99.90
2022-09-10T06:34:31.428Z,99.90
2022-09-10T06:36:58.624Z,99.90
2022-09-10T06:39:25.428Z,99.90
2022-09-10T06:41:53.814Z,99.90
2022-09-10T06:44:22.402Z,99.90
2022-09-10T06:49:36.735Z,99.90
2022-09-10T06:52:03.625Z,99.90
2022-09-10T06:54:30.420Z,99.90
2022-09-10T06:56:57.871Z,99.90
2022-09-10T06:59:24.744Z,99.90
2022-09-10T07:01:51.603Z,99.90
2022-09-10T07:04:18.574Z,99.90
2022-09-10T07:06:46.644Z,99.90
2022-09-10T07:09:14.607Z,99.90
2022-09-10T07:11:41.983Z,99.90
2022-09-10T07:14:13.843Z,99.90
2022-09-10T07:16:45.544Z,99.90
2022-09-10T07:19:15.036Z,99.90
2022-09-10T07:21:42.077Z,99.90
2022-09-10T07:24:12.218Z,99.90
2022-09-10T07:26:39.244Z,99.90
2022-09-10T07:29:07.851Z,99.90
2022-09-10T07:31:38.377Z,99.90
2022-09-10T07:34:05.293Z,99.90
2022-09-10T07:36:32.613Z,99.90
2022-09-10T07:39:01.950Z,99.90
2022-09-10T07:41:29.796Z,99.90
2022-09-10T07:43:57.200Z,99.90
2022-09-10T07:46:25.484Z,99.90
2022-09-10T07:49:00.232Z,99.90
2022-09-10T07:51:29.614Z,99.90
2022-09-10T07:53:58.401Z,99.90
2022-09-10T07:56:25.907Z,99.90
2022-09-10T07:58:54.002Z,99.90
2022-09-10T08:01:21.352Z,99.90
2022-09-10T08:03:48.425Z,99.90
2022-09-10T08:06:16.753Z,99.90
2022-09-10T08:08:43.643Z,99.90
2022-09-10T08:11:13.486Z,99.90
2022-09-10T08:13:41.780Z,99.90
2022-09-10T08:16:10.635Z,99.90
2022-09-10T08:18:37.905Z,99.90
2022-09-10T08:21:08.528Z,99.90
2022-09-10T08:23:35.949Z,99.90
2022-09-10T08:26:06.380Z,99.90
2022-09-10T08:28:33.192Z,99.90
2022-09-10T08:31:07.574Z,99.90
2022-09-10T08:33:35.619Z,99.90
2022-09-10T08:36:05.017Z,99.90
2022-09-10T08:38:39.418Z,99.90
2022-09-10T08:41:25.233Z,99.90
2022-09-10T08:43:58.187Z,99.90
2022-09-10T08:46:26.863Z,99.90
2022-09-10T08:49:19.588Z,99.90
2022-09-10T08:52:20.698Z,99.90
2022-09-10T08:55:16.692Z,99.90
2022-09-10T08:58:04.658Z,99.90
2022-09-10T09:00:54.444Z,99.90
2022-09-10T09:03:42.828Z,99.90
2022-09-10T09:06:36.044Z,99.90
2022-09-10T09:09:07.024Z,99.90
2022-09-10T09:11:44.581Z,99.90
2022-09-10T09:14:24.320Z,99.90
2022-09-10T09:17:37.788Z,99.90
2022-09-10T09:20:26.041Z,99.90
2022-09-10T09:23:01.806Z,99.90
2022-09-10T09:25:50.819Z,99.90
2022-09-10T09:28:42.309Z,99.90
2022-09-10T09:31:22.586Z,99.90
2022-09-10T09:33:51.675Z,99.90
2022-09-10T09:36:25.508Z,99.90
2022-09-10T09:38:52.632Z,99.90
2022-09-10T09:41:39.976Z,99.90
2022-09-10T09:44:25.260Z,99.90
2022-09-10T09:46:52.199Z,99.90
2022-09-10T09:49:19.141Z,99.90
2022-09-10T09:51:48.105Z,99.90
2022-09-10T09:54:56.889Z,99.90
2022-09-10T09:57:21.902Z,99.90
2022-09-10T09:59:50.575Z,99.90
2022-09-10T10:02:20.922Z,99.90
2022-09-10T10:05:07.432Z,99.90
2022-09-10T10:07:36.351Z,99.90
2022-09-10T10:10:07.658Z,99.90
2022-09-10T10:12:37.327Z,99.90
2022-09-10T10:15:04.508Z,99.90
2022-09-10T10:17:41.376Z,99.90
2022-09-10T10:20:15.286Z,99.90
2022-09-10T10:22:44.372Z,99.90
2022-09-10T10:25:36.300Z,99.90
2022-09-10T10:28:03.723Z,99.90
2022-09-10T10:30:32.114Z,99.90
2022-09-10T10:33:18.632Z,99.90
2022-09-10T10:36:04.055Z,99.90
2022-09-10T10:38:37.747Z,99.90
2022-09-10T10:41:43.015Z,99.90
2022-09-10T10:44:35.961Z,99.90
2022-09-10T10:47:21.021Z,99.90
2022-09-10T10:49:50.909Z,99.90
2022-09-10T10:52:34.514Z,99.90
2022-09-10T10:55:13.280Z,99.90
2022-09-10T10:57:56.840Z,99.90
2022-09-10T11:00:24.929Z,99.90
2022-09-10T11:03:10.007Z,99.90
2022-09-10T11:05:39.367Z,99.90
2022-09-10T11:08:27.134Z,99.90
2022-09-10T11:11:02.456Z,99.90
2022-09-10T11:13:44.494Z,99.90
2022-09-10T11:16:16.803Z,99.90
2022-09-10T11:19:05.563Z,99.90
2022-09-10T11:21:45.898Z,99.90
2022-09-10T11:24:17.217Z,99.90
2022-09-10T11:27:01.505Z,99.90
2022-09-10T11:29:39.866Z,99.90
2022-09-10T11:32:32.615Z,99.90
2022-09-10T11:35:11.415Z,99.90
2022-09-10T11:37:51.181Z,99.90
2022-09-10T11:40:43.303Z,99.90
2022-09-10T11:43:19.691Z,99.90
2022-09-10T11:45:55.092Z,99.90
2022-09-10T11:48:49.136Z,99.90
2022-09-10T11:51:26.260Z,99.90
2022-09-10T11:53:54.771Z,99.90
2022-09-10T11:56:50.491Z,99.90
2022-09-10T11:59:36.677Z,99.90
2022-09-10T12:02:21.518Z,99.90
2022-09-10T12:05:00.331Z,99.90
2022-09-10T12:08:03.860Z,99.90
2022-09-10T12:11:05.999Z,99.90
2022-09-10T12:13:37.403Z,99.90
2022-09-10T12:16:18.584Z,99.90
2022-09-10T12:18:48.792Z,99.90
2022-09-10T12:21:44.059Z,99.90
2022-09-10T12:24:32.956Z,99.90
2022-09-10T12:27:01.894Z,99.90
2022-09-10T12:29:40.797Z,99.90
2022-09-10T12:32:19.859Z,99.90
2022-09-10T12:34:51.223Z,99.90
2022-09-10T12:37:24.171Z,99.90
2022-09-10T12:40:26.126Z,99.90
2022-09-10T12:42:59.036Z,99.90
2022-09-10T12:46:01.016Z,99.90
2022-09-10T12:48:29.274Z,99.90
2022-09-10T12:51:00.636Z,99.90
2022-09-10T12:53:47.636Z,99.90
2022-09-10T12:56:40.676Z,99.90
2022-09-10T12:59:18.603Z,99.90
2022-09-10T13:01:47.818Z,99.90
2022-09-10T13:04:34.763Z,99.90
2022-09-10T13:07:19.273Z,99.90
2022-09-10T13:09:56.034Z,99.90
2022-09-10T13:12:25.549Z,99.90
2022-09-10T13:14:57.523Z,99.90
2022-09-10T13:17:51.141Z,99.90
2022-09-10T13:20:20.962Z,99.90
2022-09-10T13:23:04.426Z,99.90
2022-09-10T13:25:46.013Z,99.90
2022-09-10T13:28:31.521Z,99.90
2022-09-10T13:31:11.064Z,99.90
2022-09-10T13:33:49.208Z,99.90
2022-09-10T13:36:43.945Z,99.90
2022-09-10T13:39:12.332Z,99.90
2022-09-10T13:42:16.021Z,99.90
2022-09-10T13:45:14.371Z,99.90
2022-09-10T13:48:04.266Z,99.90
2022-09-10T13:50:46.058Z,99.90
2022-09-10T13:53:14.694Z,99.90
2022-09-10T13:55:51.376Z,99.90
2022-09-10T13:58:28.243Z,98.50
2022-09-10T14:00:57.488Z,98.80
2022-09-10T14:03:38.392Z,97.90
2022-09-10T14:06:07.564Z,96.30
2022-09-10T14:08:45.002Z,96.20
2022-09-10T14:11:11.733Z,94.80
2022-09-10T14:14:07.457Z,95.40
2022-09-10T14:16:38.841Z,95.70
2022-09-10T14:19:15.205Z,96.30
2022-09-10T14:21:43.661Z,95.80
2022-09-10T14:24:48.093Z,96.90
2022-09-10T14:27:16.570Z,95.40
2022-09-10T14:29:43.823Z,96.00
2022-09-10T14:32:34.391Z,96.20
2022-09-10T14:35:39.419Z,96.60
2022-09-10T14:38:27.645Z,97.10
2022-09-10T14:40:57.873Z,99.00
2022-09-10T14:43:33.999Z,98.40
2022-09-10T14:46:02.243Z,98.40
2022-09-10T14:48:41.227Z,99.00
2022-09-10T14:51:18.420Z,99.50
2022-09-10T14:53:49.990Z,99.20
2022-09-10T14:56:33.387Z,99.10
2022-09-10T14:59:12.218Z,99.90
2022-09-10T15:01:41.718Z,99.90
2022-09-10T15:04:14.098Z,99.90
2022-09-10T15:06:41.405Z,99.90
2022-09-10T15:09:08.195Z,99.80
2022-09-10T15:11:37.149Z,99.60
2022-09-10T15:14:03.993Z,99.90
2022-09-10T15:16:31.016Z,99.90
2022-09-10T15:18:58.292Z,99.90
2022-09-10T15:21:25.659Z,99.90
2022-09-10T15:23:52.475Z,99.90
2022-09-10T15:26:19.850Z,99.90
2022-09-10T15:28:46.669Z,99.90
2022-09-10T15:31:13.627Z,99.90
2022-09-10T15:33:40.497Z,99.90
2022-09-10T15:36:07.818Z,99.90
2022-09-10T15:38:34.656Z,99.90
2022-09-10T15:41:13.561Z,99.90
2022-09-10T15:43:43.031Z,99.90
2022-09-10T15:46:15.917Z,99.90
2022-09-10T15:48:43.623Z,99.90
2022-09-10T15:51:15.081Z,99.90
2022-09-10T15:53:43.447Z,99.90
2022-09-10T15:56:11.834Z,99.90
2022-09-10T15:58:39.248Z,99.90
2022-09-10T16:01:11.388Z,99.90
2022-09-10T16:03:44.021Z,99.90
2022-09-10T16:06:11.157Z,99.90
2022-09-10T16:08:37.971Z,99.90
2022-09-10T16:11:11.727Z,99.90
2022-09-10T16:13:39.740Z,99.90
2022-09-10T16:16:10.359Z,99.90
2022-09-10T16:18:37.404Z,99.90
2022-09-10T16:21:18.397Z,99.90
2022-09-10T16:23:47.009Z,99.90
2022-09-10T16:26:17.691Z,99.90
2022-09-10T16:28:58.410Z,99.90
2022-09-10T16:31:27.865Z,99.90
2022-09-10T16:33:58.649Z,99.90
2022-09-10T16:36:26.720Z,99.90
2022-09-10T16:38:58.028Z,99.90
2022-09-10T16:41:25.932Z,99.90
2022-09-10T16:43:53.315Z,99.90
2022-09-10T16:46:20.251Z,99.90
2022-09-10T16:48:51.620Z,99.90
2022-09-10T16:51:23.215Z,99.90
2022-09-10T16:54:02.361Z,99.90
2022-09-10T16:56:33.676Z,99.90
2022-09-10T16:59:01.027Z,99.90
2022-09-10T17:01:28.140Z,99.90
2022-09-10T17:03:55.108Z,99.90
2022-09-10T17:06:27.055Z,99.90
2022-09-10T17:08:57.669Z,99.90
2022-09-10T17:11:26.822Z,99.90
2022-09-10T17:13:54.784Z,99.90
2022-09-10T17:16:21.607Z,99.90
2022-09-10T17:18:54.673Z,99.90
2022-09-10T17:21:21.690Z,99.90
2022-09-10T17:23:48.653Z,99.90
2022-09-10T17:26:15.444Z,99.90
2022-09-10T17:28:42.989Z,99.90
2022-09-10T17:31:09.846Z,99.90
2022-09-10T17:33:36.876Z,99.90
2022-09-10T17:36:04.688Z,99.90
2022-09-10T17:38:34.293Z,99.90
2022-09-10T17:41:04.422Z,99.90
2022-09-10T17:43:36.600Z,99.90
2022-09-10T17:46:09.299Z,99.90
2022-09-10T17:48:38.106Z,99.90
2022-09-10T17:51:06.352Z,99.90
2022-09-10T17:53:34.683Z,99.90
2022-09-10T17:56:03.826Z,99.90
2022-09-10T17:58:33.163Z,99.90
2022-09-10T18:01:02.708Z,99.90
2022-09-10T18:03:29.542Z,99.90
2022-09-10T18:05:57.081Z,99.90
2022-09-10T18:08:23.991Z,99.90
2022-09-10T18:10:59.962Z,99.90
2022-09-10T18:13:27.731Z,99.90
2022-09-10T18:15:54.534Z,99.90
2022-09-10T18:18:22.238Z,99.90
2022-09-10T18:20:49.048Z,99.90
2022-09-10T18:23:15.971Z,99.90
2022-09-10T18:25:47.870Z,99.90
2022-09-10T18:28:16.496Z,99.90
2022-09-10T18:30:44.151Z,99.90
2022-09-10T18:33:11.672Z,99.90
2022-09-10T18:35:38.502Z,99.90
2022-09-10T18:38:05.578Z,99.90
2022-09-10T18:40:36.806Z,99.90
2022-09-10T18:43:05.807Z,99.90
2022-09-10T18:45:32.879Z,99.90
2022-09-10T18:48:01.101Z,99.90
2022-09-10T18:50:27.959Z,99.90
2022-09-10T18:52:54.991Z,99.90
2022-09-10T18:55:21.821Z,99.90
2022-09-10T18:57:48.664Z,99.90
2022-09-10T19:00:16.533Z,99.90
2022-09-10T19:02:46.047Z,99.90
2022-09-10T19:05:13.917Z,99.90
2022-09-10T19:07:40.851Z,99.90
2022-09-10T19:10:09.097Z,99.90
2022-09-10T19:12:35.963Z,99.90
2022-09-10T19:15:02.810Z,99.90
2022-09-10T19:17:29.613Z,99.90
2022-09-10T19:19:56.478Z,99.90
2022-09-10T19:22:23.285Z,99.90
2022-09-10T19:24:55.068Z,99.90
2022-09-10T19:27:22.996Z,99.90
2022-09-10T19:29:50.235Z,99.90
2022-09-10T19:32:19.591Z,99.90
2022-09-10T19:34:49.230Z,99.90
2022-09-10T19:37:16.179Z,99.90
2022-09-10T19:39:44.392Z,99.90
2022-09-10T19:42:12.682Z,99.90
2022-09-10T19:44:39.605Z,99.90
2022-09-10T19:47:06.396Z,99.90
2022-09-10T19:49:34.233Z,99.90
2022-09-10T19:52:01.418Z,99.90
2022-09-10T19:54:29.832Z,99.90
2022-09-10T19:56:56.692Z,99.90
2022-09-10T19:59:23.623Z,99.90
2022-09-10T20:01:50.916Z,99.90
2022-09-10T20:04:17.918Z,99.90
2022-09-10T20:06:46.057Z,99.90
2022-09-10T20:09:13.434Z,99.90
2022-09-10T20:11:40.784Z,99.90
2022-09-10T21:58:56.778Z,99.90
2022-09-10T22:01:27.729Z,99.90
2022-09-10T22:04:00.588Z,99.90
2022-09-10T22:06:30.486Z,99.90
2022-09-10T22:09:00.240Z,99.90
2022-09-10T22:11:40.629Z,99.90
2022-09-10T22:14:13.480Z,99.90
2022-09-10T22:16:40.865Z,99.90
2022-09-10T22:19:12.394Z,99.90
2022-09-10T22:21:39.489Z,99.90
2022-09-10T22:24:07.392Z,99.90
2022-09-10T22:26:34.372Z,99.90
2022-09-10T22:29:02.620Z,99.90
2022-09-10T22:31:34.692Z,99.90
2022-09-10T22:34:13.569Z,99.90
2022-09-10T22:36:42.841Z,99.90
2022-09-10T22:39:21.779Z,99.90
2022-09-10T22:41:50.121Z,99.90
2022-09-10T22:44:18.300Z,99.90
2022-09-10T22:46:45.175Z,99.90
2022-09-10T22:49:12.293Z,99.90
2022-09-10T22:51:41.050Z,99.90
2022-09-10T22:54:08.971Z,99.90
2022-09-10T22:56:36.446Z,99.90
2022-09-10T22:59:04.719Z,99.90
2022-09-10T23:01:37.650Z,99.90
2022-09-10T23:04:05.016Z,99.90
2022-09-10T23:06:33.930Z,99.90
2022-09-10T23:09:13.508Z,99.90
2022-09-10T23:11:40.943Z,99.90
2022-09-10T23:14:12.996Z,99.90
2022-09-10T23:16:42.212Z,99.90
2022-09-10T23:19:15.188Z,99.90
2022-09-10T23:21:43.834Z,99.90
2022-09-10T23:24:15.554Z,99.90
2022-09-10T23:26:43.449Z,99.90
2022-09-10T23:29:10.986Z,99.90
2022-09-10T23:31:39.618Z,99.90
2022-09-10T23:34:12.046Z,99.90
2022-09-10T23:36:41.121Z,99.90
2022-09-10T23:39:12.276Z,99.90
2022-09-10T23:41:39.215Z,99.90
2022-09-10T23:44:06.745Z,99.90
2022-09-10T23:46:34.449Z,99.90
2022-09-10T23:49:02.162Z,99.90
2022-09-10T23:51:29.252Z,99.90
2022-09-10T23:53:56.175Z,99.90
2022-09-10T23:56:25.609Z,99.90
2022-09-10T23:58:52.675Z,99.90
